sensor_id;sensor_type;location;lat;lon;timestamp;P1;durP1;ratioP1;P2;durP2;ratioP2
77322;SDS011;66384;51.052;9.850;2023-04-06T00:00:23;6.40;;;3.70;;
77322;SDS011;66384;51.052;9.850;2023-04-06T00:02:52;7.10;;;4.10;;
77322;SDS011;66384;51.052;9.850;2023-04-06T00:05:22;5.60;;;3.60;;
77322;SDS011;66384;51.052;9.850;2023-04-06T00:07:51;5.80;;;4.00;;
77322;SDS011;66384;51.052;9.850;2023-04-06T00:10:22;6.80;;;4.10;;
77322;SDS011;66384;51.052;9.850;2023-04-06T00:12:51;4.90;;;3.60;;
77322;SDS011;66384;51.052;9.850;2023-04-06T00:15:21;5.80;;;3.50;;
77322;SDS011;66384;51.052;9.850;2023-04-06T00:17:50;5.40;;;3.40;;
77322;SDS011;66384;51.052;9.850;2023-04-06T00:20:20;5.20;;;3.40;;
77322;SDS011;66384;51.052;9.850;2023-04-06T00:22:50;3.50;;;2.50;;
77322;SDS011;66384;51.052;9.850;2023-04-06T00:25:20;5.20;;;3.40;;
77322;SDS011;66384;51.052;9.850;2023-04-06T00:27:49;6.20;;;3.80;;
77322;SDS011;66384;51.052;9.850;2023-04-06T00:30:19;4.50;;;3.20;;
77322;SDS011;66384;51.052;9.850;2023-04-06T00:32:48;7.20;;;3.30;;
77322;SDS011;66384;51.052;9.850;2023-04-06T00:35:18;7.40;;;3.90;;
77322;SDS011;66384;51.052;9.850;2023-04-06T00:37:47;4.20;;;3.10;;
77322;SDS011;66384;51.052;9.850;2023-04-06T00:40:16;6.20;;;3.30;;
77322;SDS011;66384;51.052;9.850;2023-04-06T00:42:46;5.90;;;3.20;;
77322;SDS011;66384;51.052;9.850;2023-04-06T00:45:16;3.90;;;2.90;;
77322;SDS011;66384;51.052;9.850;2023-04-06T00:47:45;5.40;;;3.60;;
77322;SDS011;66384;51.052;9.850;2023-04-06T00:50:15;4.80;;;2.60;;
77322;SDS011;66384;51.052;9.850;2023-04-06T00:52:45;4.70;;;3.20;;
77322;SDS011;66384;51.052;9.850;2023-04-06T00:55:14;3.80;;;3.20;;
77322;SDS011;66384;51.052;9.850;2023-04-06T00:57:44;4.30;;;3.10;;
77322;SDS011;66384;51.052;9.850;2023-04-06T01:00:14;5.80;;;3.30;;
77322;SDS011;66384;51.052;9.850;2023-04-06T01:02:44;4.80;;;2.80;;
77322;SDS011;66384;51.052;9.850;2023-04-06T01:05:14;5.30;;;3.30;;
77322;SDS011;66384;51.052;9.850;2023-04-06T01:07:44;4.20;;;3.10;;
77322;SDS011;66384;51.052;9.850;2023-04-06T01:10:23;4.30;;;3.40;;
77322;SDS011;66384;51.052;9.850;2023-04-06T01:12:53;3.40;;;2.90;;
77322;SDS011;66384;51.052;9.850;2023-04-06T01:15:22;4.80;;;3.30;;
77322;SDS011;66384;51.052;9.850;2023-04-06T01:17:53;5.50;;;3.30;;
77322;SDS011;66384;51.052;9.850;2023-04-06T01:20:22;5.40;;;3.40;;
77322;SDS011;66384;51.052;9.850;2023-04-06T01:22:51;6.30;;;3.60;;
77322;SDS011;66384;51.052;9.850;2023-04-06T01:25:21;3.90;;;3.30;;
77322;SDS011;66384;51.052;9.850;2023-04-06T01:27:50;4.80;;;3.60;;
77322;SDS011;66384;51.052;9.850;2023-04-06T01:30:19;4.60;;;3.20;;
77322;SDS011;66384;51.052;9.850;2023-04-06T01:32:49;5.70;;;3.70;;
77322;SDS011;66384;51.052;9.850;2023-04-06T01:35:18;4.10;;;2.80;;
77322;SDS011;66384;51.052;9.850;2023-04-06T01:37:48;5.50;;;3.20;;
77322;SDS011;66384;51.052;9.850;2023-04-06T01:40:18;5.20;;;3.60;;
77322;SDS011;66384;51.052;9.850;2023-04-06T01:42:47;3.80;;;2.90;;
77322;SDS011;66384;51.052;9.850;2023-04-06T01:45:16;4.60;;;3.00;;
77322;SDS011;66384;51.052;9.850;2023-04-06T01:47:46;7.30;;;3.80;;
77322;SDS011;66384;51.052;9.850;2023-04-06T01:50:15;4.30;;;3.20;;
77322;SDS011;66384;51.052;9.850;2023-04-06T01:52:44;7.00;;;3.50;;
77322;SDS011;66384;51.052;9.850;2023-04-06T01:55:14;6.30;;;3.60;;
77322;SDS011;66384;51.052;9.850;2023-04-06T01:57:43;4.20;;;3.20;;
77322;SDS011;66384;51.052;9.850;2023-04-06T02:00:14;4.00;;;3.00;;
77322;SDS011;66384;51.052;9.850;2023-04-06T02:05:12;5.40;;;2.70;;
77322;SDS011;66384;51.052;9.850;2023-04-06T02:07:41;4.70;;;3.30;;
77322;SDS011;66384;51.052;9.850;2023-04-06T02:10:12;4.20;;;2.90;;
77322;SDS011;66384;51.052;9.850;2023-04-06T02:15:10;3.60;;;2.60;;
77322;SDS011;66384;51.052;9.850;2023-04-06T02:17:40;5.30;;;3.70;;
77322;SDS011;66384;51.052;9.850;2023-04-06T02:20:10;6.60;;;3.30;;
77322;SDS011;66384;51.052;9.850;2023-04-06T02:22:39;6.00;;;3.50;;
77322;SDS011;66384;51.052;9.850;2023-04-06T02:25:09;3.80;;;2.50;;
77322;SDS011;66384;51.052;9.850;2023-04-06T02:27:39;4.10;;;3.20;;
77322;SDS011;66384;51.052;9.850;2023-04-06T02:30:10;4.70;;;3.40;;
77322;SDS011;66384;51.052;9.850;2023-04-06T02:32:39;5.00;;;3.60;;
77322;SDS011;66384;51.052;9.850;2023-04-06T02:35:09;4.10;;;3.00;;
77322;SDS011;66384;51.052;9.850;2023-04-06T02:37:38;4.50;;;3.20;;
77322;SDS011;66384;51.052;9.850;2023-04-06T02:40:09;5.20;;;3.30;;
77322;SDS011;66384;51.052;9.850;2023-04-06T02:42:39;4.50;;;3.20;;
77322;SDS011;66384;51.052;9.850;2023-04-06T02:45:08;4.90;;;3.30;;
77322;SDS011;66384;51.052;9.850;2023-04-06T02:47:38;4.20;;;2.80;;
77322;SDS011;66384;51.052;9.850;2023-04-06T02:50:08;6.70;;;3.40;;
77322;SDS011;66384;51.052;9.850;2023-04-06T02:52:38;6.40;;;3.70;;
77322;SDS011;66384;51.052;9.850;2023-04-06T02:55:08;5.30;;;3.10;;
77322;SDS011;66384;51.052;9.850;2023-04-06T02:57:37;3.00;;;2.00;;
77322;SDS011;66384;51.052;9.850;2023-04-06T03:00:08;5.60;;;3.30;;
77322;SDS011;66384;51.052;9.850;2023-04-06T03:02:39;5.50;;;3.40;;
77322;SDS011;66384;51.052;9.850;2023-04-06T03:05:08;4.30;;;3.40;;
77322;SDS011;66384;51.052;9.850;2023-04-06T03:07:37;6.90;;;3.40;;
77322;SDS011;66384;51.052;9.850;2023-04-06T03:10:08;5.80;;;3.90;;
77322;SDS011;66384;51.052;9.850;2023-04-06T03:12:39;4.90;;;3.30;;
77322;SDS011;66384;51.052;9.850;2023-04-06T03:15:09;4.80;;;3.20;;
77322;SDS011;66384;51.052;9.850;2023-04-06T03:17:39;4.20;;;3.10;;
77322;SDS011;66384;51.052;9.850;2023-04-06T03:20:09;5.80;;;3.10;;
77322;SDS011;66384;51.052;9.850;2023-04-06T03:22:39;4.70;;;3.30;;
77322;SDS011;66384;51.052;9.850;2023-04-06T03:25:08;4.90;;;3.00;;
77322;SDS011;66384;51.052;9.850;2023-04-06T03:27:37;5.80;;;3.90;;
77322;SDS011;66384;51.052;9.850;2023-04-06T03:30:08;3.80;;;2.90;;
77322;SDS011;66384;51.052;9.850;2023-04-06T03:32:38;5.50;;;3.30;;
77322;SDS011;66384;51.052;9.850;2023-04-06T03:35:08;4.70;;;3.40;;
77322;SDS011;66384;51.052;9.850;2023-04-06T03:37:37;5.90;;;3.80;;
77322;SDS011;66384;51.052;9.850;2023-04-06T03:40:08;5.60;;;3.40;;
77322;SDS011;66384;51.052;9.850;2023-04-06T03:42:38;6.60;;;4.10;;
77322;SDS011;66384;51.052;9.850;2023-04-06T03:45:08;5.50;;;3.70;;
77322;SDS011;66384;51.052;9.850;2023-04-06T03:47:39;5.40;;;3.10;;
77322;SDS011;66384;51.052;9.850;2023-04-06T03:50:09;7.80;;;3.80;;
77322;SDS011;66384;51.052;9.850;2023-04-06T03:52:38;4.60;;;3.40;;
77322;SDS011;66384;51.052;9.850;2023-04-06T03:55:09;7.30;;;3.60;;
77322;SDS011;66384;51.052;9.850;2023-04-06T03:57:38;6.20;;;3.30;;
77322;SDS011;66384;51.052;9.850;2023-04-06T04:00:09;4.40;;;2.90;;
77322;SDS011;66384;51.052;9.850;2023-04-06T04:02:39;3.60;;;2.90;;
77322;SDS011;66384;51.052;9.850;2023-04-06T04:05:09;4.80;;;3.40;;
77322;SDS011;66384;51.052;9.850;2023-04-06T04:07:38;5.70;;;3.50;;
77322;SDS011;66384;51.052;9.850;2023-04-06T04:10:08;4.60;;;2.90;;
77322;SDS011;66384;51.052;9.850;2023-04-06T04:12:38;4.60;;;3.20;;
77322;SDS011;66384;51.052;9.850;2023-04-06T04:15:08;4.40;;;2.90;;
77322;SDS011;66384;51.052;9.850;2023-04-06T04:17:38;5.50;;;3.60;;
77322;SDS011;66384;51.052;9.850;2023-04-06T04:20:08;4.80;;;3.60;;
77322;SDS011;66384;51.052;9.850;2023-04-06T04:22:38;5.20;;;2.80;;
77322;SDS011;66384;51.052;9.850;2023-04-06T04:25:08;4.40;;;3.10;;
77322;SDS011;66384;51.052;9.850;2023-04-06T04:27:38;5.70;;;3.10;;
77322;SDS011;66384;51.052;9.850;2023-04-06T04:30:08;4.10;;;2.80;;
77322;SDS011;66384;51.052;9.850;2023-04-06T04:32:37;4.60;;;3.40;;
77322;SDS011;66384;51.052;9.850;2023-04-06T04:35:07;4.60;;;3.00;;
77322;SDS011;66384;51.052;9.850;2023-04-06T04:37:40;4.90;;;3.50;;
77322;SDS011;66384;51.052;9.850;2023-04-06T04:40:10;4.70;;;3.40;;
77322;SDS011;66384;51.052;9.850;2023-04-06T04:42:40;4.80;;;3.30;;
77322;SDS011;66384;51.052;9.850;2023-04-06T04:45:10;5.30;;;3.60;;
77322;SDS011;66384;51.052;9.850;2023-04-06T04:47:39;4.90;;;3.60;;
77322;SDS011;66384;51.052;9.850;2023-04-06T04:50:09;4.70;;;3.60;;
77322;SDS011;66384;51.052;9.850;2023-04-06T04:52:39;5.10;;;3.70;;
77322;SDS011;66384;51.052;9.850;2023-04-06T04:55:08;3.70;;;2.60;;
77322;SDS011;66384;51.052;9.850;2023-04-06T04:57:37;5.10;;;3.30;;
77322;SDS011;66384;51.052;9.850;2023-04-06T05:00:08;4.60;;;3.40;;
77322;SDS011;66384;51.052;9.850;2023-04-06T05:05:08;1.80;;;1.20;;
77322;SDS011;66384;51.052;9.850;2023-04-06T05:07:37;3.70;;;2.20;;
77322;SDS011;66384;51.052;9.850;2023-04-06T05:10:07;5.90;;;4.10;;
77322;SDS011;66384;51.052;9.850;2023-04-06T05:12:38;5.30;;;3.90;;
77322;SDS011;66384;51.052;9.850;2023-04-06T05:15:08;4.60;;;3.50;;
77322;SDS011;66384;51.052;9.850;2023-04-06T05:17:38;5.80;;;3.90;;
77322;SDS011;66384;51.052;9.850;2023-04-06T05:20:08;5.30;;;3.70;;
77322;SDS011;66384;51.052;9.850;2023-04-06T05:22:38;5.20;;;3.50;;
77322;SDS011;66384;51.052;9.850;2023-04-06T05:25:08;4.00;;;3.00;;
77322;SDS011;66384;51.052;9.850;2023-04-06T05:27:38;4.50;;;3.50;;
77322;SDS011;66384;51.052;9.850;2023-04-06T05:30:08;5.70;;;3.60;;
77322;SDS011;66384;51.052;9.850;2023-04-06T05:32:37;5.10;;;3.30;;
77322;SDS011;66384;51.052;9.850;2023-04-06T05:35:07;5.10;;;3.50;;
77322;SDS011;66384;51.052;9.850;2023-04-06T05:37:37;7.60;;;3.50;;
77322;SDS011;66384;51.052;9.850;2023-04-06T05:40:07;6.70;;;3.30;;
77322;SDS011;66384;51.052;9.850;2023-04-06T05:42:37;7.00;;;3.70;;
77322;SDS011;66384;51.052;9.850;2023-04-06T05:45:09;5.10;;;3.70;;
77322;SDS011;66384;51.052;9.850;2023-04-06T05:47:43;5.10;;;3.50;;
77322;SDS011;66384;51.052;9.850;2023-04-06T05:50:14;6.90;;;4.50;;
77322;SDS011;66384;51.052;9.850;2023-04-06T05:52:43;5.70;;;3.60;;
77322;SDS011;66384;51.052;9.850;2023-04-06T05:55:12;7.60;;;3.90;;
77322;SDS011;66384;51.052;9.850;2023-04-06T05:57:42;5.50;;;3.50;;
77322;SDS011;66384;51.052;9.850;2023-04-06T06:00:12;5.30;;;3.60;;
77322;SDS011;66384;51.052;9.850;2023-04-06T06:02:43;5.80;;;3.40;;
77322;SDS011;66384;51.052;9.850;2023-04-06T06:05:12;6.80;;;4.20;;
77322;SDS011;66384;51.052;9.850;2023-04-06T06:07:41;6.20;;;3.60;;
77322;SDS011;66384;51.052;9.850;2023-04-06T06:10:11;11.10;;;5.90;;
77322;SDS011;66384;51.052;9.850;2023-04-06T06:12:40;7.90;;;5.00;;
77322;SDS011;66384;51.052;9.850;2023-04-06T06:15:10;8.80;;;5.30;;
77322;SDS011;66384;51.052;9.850;2023-04-06T06:17:40;6.50;;;4.10;;
77322;SDS011;66384;51.052;9.850;2023-04-06T06:20:10;6.10;;;4.70;;
77322;SDS011;66384;51.052;9.850;2023-04-06T06:22:40;7.60;;;5.10;;
77322;SDS011;66384;51.052;9.850;2023-04-06T06:25:09;7.70;;;4.90;;
77322;SDS011;66384;51.052;9.850;2023-04-06T06:27:39;6.50;;;4.10;;
77322;SDS011;66384;51.052;9.850;2023-04-06T06:30:10;6.80;;;4.70;;
77322;SDS011;66384;51.052;9.850;2023-04-06T06:32:39;7.50;;;5.40;;
77322;SDS011;66384;51.052;9.850;2023-04-06T06:35:09;8.40;;;6.20;;
77322;SDS011;66384;51.052;9.850;2023-04-06T06:37:38;7.30;;;5.10;;
77322;SDS011;66384;51.052;9.850;2023-04-06T06:40:10;10.50;;;6.00;;
77322;SDS011;66384;51.052;9.850;2023-04-06T06:42:42;9.00;;;6.00;;
77322;SDS011;66384;51.052;9.850;2023-04-06T06:45:11;9.20;;;6.50;;
77322;SDS011;66384;51.052;9.850;2023-04-06T06:47:41;7.60;;;5.80;;
77322;SDS011;66384;51.052;9.850;2023-04-06T06:50:10;9.30;;;6.30;;
77322;SDS011;66384;51.052;9.850;2023-04-06T06:52:40;7.70;;;5.00;;
77322;SDS011;66384;51.052;9.850;2023-04-06T06:55:10;8.40;;;5.70;;
77322;SDS011;66384;51.052;9.850;2023-04-06T06:57:39;10.90;;;7.10;;
77322;SDS011;66384;51.052;9.850;2023-04-06T07:00:10;11.10;;;6.90;;
77322;SDS011;66384;51.052;9.850;2023-04-06T07:02:41;10.20;;;7.30;;
77322;SDS011;66384;51.052;9.850;2023-04-06T07:05:10;10.20;;;7.70;;
77322;SDS011;66384;51.052;9.850;2023-04-06T07:07:40;8.10;;;6.40;;
77322;SDS011;66384;51.052;9.850;2023-04-06T07:10:10;8.60;;;5.70;;
77322;SDS011;66384;51.052;9.850;2023-04-06T07:12:39;7.40;;;4.90;;
77322;SDS011;66384;51.052;9.850;2023-04-06T07:15:10;9.00;;;6.30;;
77322;SDS011;66384;51.052;9.850;2023-04-06T07:17:39;9.30;;;6.20;;
77322;SDS011;66384;51.052;9.850;2023-04-06T07:20:11;7.90;;;5.60;;
77322;SDS011;66384;51.052;9.850;2023-04-06T07:22:42;7.80;;;5.20;;
77322;SDS011;66384;51.052;9.850;2023-04-06T07:25:12;6.80;;;4.80;;
77322;SDS011;66384;51.052;9.850;2023-04-06T07:27:41;7.70;;;5.50;;
77322;SDS011;66384;51.052;9.850;2023-04-06T07:30:11;7.10;;;5.30;;
77322;SDS011;66384;51.052;9.850;2023-04-06T07:32:41;6.70;;;5.30;;
77322;SDS011;66384;51.052;9.850;2023-04-06T07:35:11;6.20;;;4.50;;
77322;SDS011;66384;51.052;9.850;2023-04-06T07:37:40;8.10;;;5.00;;
77322;SDS011;66384;51.052;9.850;2023-04-06T07:40:10;6.40;;;4.80;;
77322;SDS011;66384;51.052;9.850;2023-04-06T07:42:40;6.20;;;4.90;;
77322;SDS011;66384;51.052;9.850;2023-04-06T07:45:10;6.80;;;5.10;;
77322;SDS011;66384;51.052;9.850;2023-04-06T07:47:39;6.10;;;4.70;;
77322;SDS011;66384;51.052;9.850;2023-04-06T07:50:09;6.60;;;4.60;;
77322;SDS011;66384;51.052;9.850;2023-04-06T07:52:39;5.70;;;4.80;;
77322;SDS011;66384;51.052;9.850;2023-04-06T07:55:09;6.80;;;4.80;;
77322;SDS011;66384;51.052;9.850;2023-04-06T07:57:38;7.40;;;5.00;;
77322;SDS011;66384;51.052;9.850;2023-04-06T08:00:09;5.10;;;4.50;;
77322;SDS011;66384;51.052;9.850;2023-04-06T08:02:39;5.90;;;4.50;;
77322;SDS011;66384;51.052;9.850;2023-04-06T08:05:09;6.70;;;5.00;;
77322;SDS011;66384;51.052;9.850;2023-04-06T08:07:38;7.30;;;5.10;;
77322;SDS011;66384;51.052;9.850;2023-04-06T08:10:09;8.00;;;5.20;;
77322;SDS011;66384;51.052;9.850;2023-04-06T08:12:39;7.70;;;5.40;;
77322;SDS011;66384;51.052;9.850;2023-04-06T08:15:08;7.50;;;5.10;;
77322;SDS011;66384;51.052;9.850;2023-04-06T08:17:38;6.20;;;4.50;;
77322;SDS011;66384;51.052;9.850;2023-04-06T08:20:09;8.50;;;4.70;;
77322;SDS011;66384;51.052;9.850;2023-04-06T08:22:39;9.10;;;6.30;;
77322;SDS011;66384;51.052;9.850;2023-04-06T08:25:08;7.10;;;4.90;;
77322;SDS011;66384;51.052;9.850;2023-04-06T08:27:38;7.20;;;6.10;;
77322;SDS011;66384;51.052;9.850;2023-04-06T08:30:07;7.90;;;5.90;;
77322;SDS011;66384;51.052;9.850;2023-04-06T08:32:37;8.30;;;5.20;;
77322;SDS011;66384;51.052;9.850;2023-04-06T08:35:08;7.50;;;5.10;;
77322;SDS011;66384;51.052;9.850;2023-04-06T08:37:37;6.20;;;5.40;;
77322;SDS011;66384;51.052;9.850;2023-04-06T08:40:08;6.00;;;4.90;;
77322;SDS011;66384;51.052;9.850;2023-04-06T08:42:39;9.30;;;5.60;;
77322;SDS011;66384;51.052;9.850;2023-04-06T08:45:17;6.70;;;4.70;;
77322;SDS011;66384;51.052;9.850;2023-04-06T08:47:47;9.80;;;5.70;;
77322;SDS011;66384;51.052;9.850;2023-04-06T08:50:17;8.20;;;6.00;;
77322;SDS011;66384;51.052;9.850;2023-04-06T08:52:48;6.60;;;4.70;;
77322;SDS011;66384;51.052;9.850;2023-04-06T08:55:17;7.10;;;5.20;;
77322;SDS011;66384;51.052;9.850;2023-04-06T08:57:47;7.60;;;5.00;;
77322;SDS011;66384;51.052;9.850;2023-04-06T09:00:20;8.90;;;4.60;;
77322;SDS011;66384;51.052;9.850;2023-04-06T09:02:50;9.30;;;5.70;;
77322;SDS011;66384;51.052;9.850;2023-04-06T09:05:22;7.20;;;4.90;;
77322;SDS011;66384;51.052;9.850;2023-04-06T09:07:53;9.50;;;5.00;;
77322;SDS011;66384;51.052;9.850;2023-04-06T09:10:23;8.50;;;5.50;;
77322;SDS011;66384;51.052;9.850;2023-04-06T09:13:01;8.60;;;4.80;;
77322;SDS011;66384;51.052;9.850;2023-04-06T09:15:32;7.90;;;5.10;;
77322;SDS011;66384;51.052;9.850;2023-04-06T09:18:02;8.10;;;5.60;;
77322;SDS011;66384;51.052;9.850;2023-04-06T09:20:32;7.80;;;5.40;;
77322;SDS011;66384;51.052;9.850;2023-04-06T09:23:01;7.30;;;5.20;;
77322;SDS011;66384;51.052;9.850;2023-04-06T09:25:31;6.80;;;4.80;;
77322;SDS011;66384;51.052;9.850;2023-04-06T09:28:00;7.70;;;4.90;;
77322;SDS011;66384;51.052;9.850;2023-04-06T09:30:33;6.30;;;4.40;;
77322;SDS011;66384;51.052;9.850;2023-04-06T09:33:04;5.00;;;4.10;;
77322;SDS011;66384;51.052;9.850;2023-04-06T09:35:34;6.80;;;4.30;;
77322;SDS011;66384;51.052;9.850;2023-04-06T09:38:10;7.00;;;4.60;;
77322;SDS011;66384;51.052;9.850;2023-04-06T09:40:48;7.60;;;4.10;;
77322;SDS011;66384;51.052;9.850;2023-04-06T09:43:24;7.40;;;5.00;;
77322;SDS011;66384;51.052;9.850;2023-04-06T09:45:54;8.40;;;4.50;;
77322;SDS011;66384;51.052;9.850;2023-04-06T09:50:55;6.10;;;4.40;;
77322;SDS011;66384;51.052;9.850;2023-04-06T09:53:30;5.70;;;4.00;;
77322;SDS011;66384;51.052;9.850;2023-04-06T09:56:03;6.40;;;4.30;;
77322;SDS011;66384;51.052;9.850;2023-04-06T09:58:38;7.10;;;4.30;;
77322;SDS011;66384;51.052;9.850;2023-04-06T10:01:12;7.30;;;4.80;;
77322;SDS011;66384;51.052;9.850;2023-04-06T10:03:45;8.80;;;4.60;;
77322;SDS011;66384;51.052;9.850;2023-04-06T10:06:18;8.10;;;5.20;;
77322;SDS011;66384;51.052;9.850;2023-04-06T10:08:51;8.10;;;4.50;;
77322;SDS011;66384;51.052;9.850;2023-04-06T10:11:24;8.50;;;5.90;;
77322;SDS011;66384;51.052;9.850;2023-04-06T10:13:53;6.80;;;4.80;;
77322;SDS011;66384;51.052;9.850;2023-04-06T10:16:24;6.80;;;4.90;;
77322;SDS011;66384;51.052;9.850;2023-04-06T10:18:57;8.50;;;5.30;;
77322;SDS011;66384;51.052;9.850;2023-04-06T10:21:29;7.50;;;4.90;;
77322;SDS011;66384;51.052;9.850;2023-04-06T10:24:01;6.20;;;4.30;;
77322;SDS011;66384;51.052;9.850;2023-04-06T10:26:36;8.30;;;5.20;;
77322;SDS011;66384;51.052;9.850;2023-04-06T10:29:05;6.70;;;4.60;;
77322;SDS011;66384;51.052;9.850;2023-04-06T10:31:39;7.10;;;4.70;;
77322;SDS011;66384;51.052;9.850;2023-04-06T10:34:10;6.50;;;4.90;;
77322;SDS011;66384;51.052;9.850;2023-04-06T10:36:41;7.40;;;5.20;;
77322;SDS011;66384;51.052;9.850;2023-04-06T10:39:10;5.90;;;4.50;;
77322;SDS011;66384;51.052;9.850;2023-04-06T10:41:42;9.90;;;6.10;;
77322;SDS011;66384;51.052;9.850;2023-04-06T10:44:18;8.30;;;4.90;;
77322;SDS011;66384;51.052;9.850;2023-04-06T10:46:56;9.40;;;5.30;;
77322;SDS011;66384;51.052;9.850;2023-04-06T10:49:27;7.90;;;5.40;;
77322;SDS011;66384;51.052;9.850;2023-04-06T10:51:57;7.90;;;5.10;;
77322;SDS011;66384;51.052;9.850;2023-04-06T10:54:26;7.50;;;5.50;;
77322;SDS011;66384;51.052;9.850;2023-04-06T10:56:58;8.80;;;5.50;;
77322;SDS011;66384;51.052;9.850;2023-04-06T10:59:28;7.70;;;4.80;;
77322;SDS011;66384;51.052;9.850;2023-04-06T11:01:57;7.90;;;6.10;;
77322;SDS011;66384;51.052;9.850;2023-04-06T11:04:27;7.10;;;5.30;;
77322;SDS011;66384;51.052;9.850;2023-04-06T11:06:56;8.40;;;5.90;;
77322;SDS011;66384;51.052;9.850;2023-04-06T11:09:26;6.30;;;4.60;;
77322;SDS011;66384;51.052;9.850;2023-04-06T11:11:57;5.90;;;4.50;;
77322;SDS011;66384;51.052;9.850;2023-04-06T11:14:27;6.90;;;5.30;;
77322;SDS011;66384;51.052;9.850;2023-04-06T11:16:56;9.10;;;4.70;;
77322;SDS011;66384;51.052;9.850;2023-04-06T11:19:25;7.30;;;4.80;;
77322;SDS011;66384;51.052;9.850;2023-04-06T11:21:55;7.60;;;5.10;;
77322;SDS011;66384;51.052;9.850;2023-04-06T11:24:33;6.70;;;5.30;;
77322;SDS011;66384;51.052;9.850;2023-04-06T11:27:03;7.70;;;5.90;;
77322;SDS011;66384;51.052;9.850;2023-04-06T11:29:33;6.50;;;4.30;;
77322;SDS011;66384;51.052;9.850;2023-04-06T11:32:04;7.40;;;5.20;;
77322;SDS011;66384;51.052;9.850;2023-04-06T11:34:35;6.70;;;4.90;;
77322;SDS011;66384;51.052;9.850;2023-04-06T11:37:08;6.10;;;3.70;;
77322;SDS011;66384;51.052;9.850;2023-04-06T11:39:40;6.00;;;4.50;;
77322;SDS011;66384;51.052;9.850;2023-04-06T11:42:11;7.80;;;5.40;;
77322;SDS011;66384;51.052;9.850;2023-04-06T11:44:42;6.50;;;4.90;;
77322;SDS011;66384;51.052;9.850;2023-04-06T11:47:12;7.60;;;5.40;;
77322;SDS011;66384;51.052;9.850;2023-04-06T11:49:42;7.50;;;5.00;;
77322;SDS011;66384;51.052;9.850;2023-04-06T11:52:15;8.40;;;5.10;;
77322;SDS011;66384;51.052;9.850;2023-04-06T11:54:47;6.70;;;4.60;;
77322;SDS011;66384;51.052;9.850;2023-04-06T11:57:19;8.50;;;5.30;;
77322;SDS011;66384;51.052;9.850;2023-04-06T11:59:49;7.20;;;5.80;;
77322;SDS011;66384;51.052;9.850;2023-04-06T12:02:18;7.10;;;5.60;;
77322;SDS011;66384;51.052;9.850;2023-04-06T12:04:48;7.40;;;5.30;;
77322;SDS011;66384;51.052;9.850;2023-04-06T12:07:17;8.70;;;6.40;;
77322;SDS011;66384;51.052;9.850;2023-04-06T12:09:46;7.60;;;6.20;;
77322;SDS011;66384;51.052;9.850;2023-04-06T12:12:16;7.00;;;5.30;;
77322;SDS011;66384;51.052;9.850;2023-04-06T12:14:45;8.30;;;4.80;;
77322;SDS011;66384;51.052;9.850;2023-04-06T12:17:14;7.20;;;5.70;;
77322;SDS011;66384;51.052;9.850;2023-04-06T12:19:43;7.00;;;4.80;;
77322;SDS011;66384;51.052;9.850;2023-04-06T12:22:13;6.30;;;4.40;;
77322;SDS011;66384;51.052;9.850;2023-04-06T12:24:43;6.60;;;4.70;;
77322;SDS011;66384;51.052;9.850;2023-04-06T12:27:12;7.00;;;6.00;;
77322;SDS011;66384;51.052;9.850;2023-04-06T12:29:42;7.80;;;4.90;;
77322;SDS011;66384;51.052;9.850;2023-04-06T12:32:11;6.60;;;4.90;;
77322;SDS011;66384;51.052;9.850;2023-04-06T12:34:41;7.40;;;4.60;;
77322;SDS011;66384;51.052;9.850;2023-04-06T12:37:10;7.70;;;5.20;;
77322;SDS011;66384;51.052;9.850;2023-04-06T12:39:40;7.70;;;4.90;;
77322;SDS011;66384;51.052;9.850;2023-04-06T12:44:39;8.00;;;5.50;;
77322;SDS011;66384;51.052;9.850;2023-04-06T12:47:09;6.20;;;4.50;;
77322;SDS011;66384;51.052;9.850;2023-04-06T12:49:39;7.30;;;4.20;;
77322;SDS011;66384;51.052;9.850;2023-04-06T12:52:09;5.80;;;4.40;;
77322;SDS011;66384;51.052;9.850;2023-04-06T12:54:38;6.80;;;5.60;;
77322;SDS011;66384;51.052;9.850;2023-04-06T12:57:09;6.20;;;4.50;;
77322;SDS011;66384;51.052;9.850;2023-04-06T12:59:38;6.40;;;4.20;;
77322;SDS011;66384;51.052;9.850;2023-04-06T13:02:10;8.90;;;5.00;;
77322;SDS011;66384;51.052;9.850;2023-04-06T13:04:40;7.80;;;4.30;;
77322;SDS011;66384;51.052;9.850;2023-04-06T13:07:09;6.80;;;4.60;;
77322;SDS011;66384;51.052;9.850;2023-04-06T13:09:39;8.60;;;5.10;;
77322;SDS011;66384;51.052;9.850;2023-04-06T13:12:09;7.60;;;5.00;;
77322;SDS011;66384;51.052;9.850;2023-04-06T13:17:09;6.00;;;4.70;;
77322;SDS011;66384;51.052;9.850;2023-04-06T13:19:39;6.50;;;4.20;;
77322;SDS011;66384;51.052;9.850;2023-04-06T13:22:10;7.10;;;5.40;;
77322;SDS011;66384;51.052;9.850;2023-04-06T13:27:09;7.90;;;5.40;;
77322;SDS011;66384;51.052;9.850;2023-04-06T13:32:07;6.20;;;4.80;;
77322;SDS011;66384;51.052;9.850;2023-04-06T13:34:39;6.30;;;5.00;;
77322;SDS011;66384;51.052;9.850;2023-04-06T13:37:11;7.80;;;5.60;;
77322;SDS011;66384;51.052;9.850;2023-04-06T13:39:41;7.00;;;5.50;;
77322;SDS011;66384;51.052;9.850;2023-04-06T13:42:11;6.80;;;4.80;;
77322;SDS011;66384;51.052;9.850;2023-04-06T13:44:41;6.20;;;4.70;;
77322;SDS011;66384;51.052;9.850;2023-04-06T13:47:13;8.60;;;5.40;;
77322;SDS011;66384;51.052;9.850;2023-04-06T13:49:43;6.40;;;3.90;;
77322;SDS011;66384;51.052;9.850;2023-04-06T13:52:14;5.80;;;4.40;;
77322;SDS011;66384;51.052;9.850;2023-04-06T13:54:44;4.70;;;3.50;;
77322;SDS011;66384;51.052;9.850;2023-04-06T13:57:14;5.30;;;4.00;;
77322;SDS011;66384;51.052;9.850;2023-04-06T13:59:44;7.20;;;4.90;;
77322;SDS011;66384;51.052;9.850;2023-04-06T14:02:14;8.50;;;5.20;;
77322;SDS011;66384;51.052;9.850;2023-04-06T14:04:44;5.50;;;4.60;;
77322;SDS011;66384;51.052;9.850;2023-04-06T14:07:13;5.20;;;3.90;;
77322;SDS011;66384;51.052;9.850;2023-04-06T14:09:43;7.80;;;4.70;;
77322;SDS011;66384;51.052;9.850;2023-04-06T14:12:13;7.50;;;4.70;;
77322;SDS011;66384;51.052;9.850;2023-04-06T14:14:43;6.70;;;5.10;;
77322;SDS011;66384;51.052;9.850;2023-04-06T14:17:13;9.90;;;6.20;;
77322;SDS011;66384;51.052;9.850;2023-04-06T14:19:43;5.20;;;4.20;;
77322;SDS011;66384;51.052;9.850;2023-04-06T14:22:13;5.30;;;4.00;;
77322;SDS011;66384;51.052;9.850;2023-04-06T14:24:43;5.50;;;4.20;;
77322;SDS011;66384;51.052;9.850;2023-04-06T14:27:13;6.00;;;4.10;;
77322;SDS011;66384;51.052;9.850;2023-04-06T14:29:43;8.40;;;4.80;;
77322;SDS011;66384;51.052;9.850;2023-04-06T14:32:13;6.10;;;4.30;;
77322;SDS011;66384;51.052;9.850;2023-04-06T14:34:43;5.40;;;4.10;;
77322;SDS011;66384;51.052;9.850;2023-04-06T14:37:13;5.20;;;4.20;;
77322;SDS011;66384;51.052;9.850;2023-04-06T14:39:44;5.90;;;4.70;;
77322;SDS011;66384;51.052;9.850;2023-04-06T14:42:13;10.30;;;7.60;;
77322;SDS011;66384;51.052;9.850;2023-04-06T14:44:43;7.40;;;5.40;;
77322;SDS011;66384;51.052;9.850;2023-04-06T14:47:15;9.70;;;6.30;;
77322;SDS011;66384;51.052;9.850;2023-04-06T14:49:47;20.20;;;10.80;;
77322;SDS011;66384;51.052;9.850;2023-04-06T14:52:16;12.40;;;6.90;;
77322;SDS011;66384;51.052;9.850;2023-04-06T14:54:46;10.00;;;6.50;;
77322;SDS011;66384;51.052;9.850;2023-04-06T14:57:16;5.80;;;4.80;;
77322;SDS011;66384;51.052;9.850;2023-04-06T14:59:45;7.30;;;5.20;;
77322;SDS011;66384;51.052;9.850;2023-04-06T15:02:15;8.10;;;5.20;;
77322;SDS011;66384;51.052;9.850;2023-04-06T15:04:44;9.30;;;5.30;;
77322;SDS011;66384;51.052;9.850;2023-04-06T15:07:13;8.70;;;5.80;;
77322;SDS011;66384;51.052;9.850;2023-04-06T15:09:43;6.80;;;4.90;;
77322;SDS011;66384;51.052;9.850;2023-04-06T15:12:12;8.20;;;5.50;;
77322;SDS011;66384;51.052;9.850;2023-04-06T15:14:42;8.40;;;5.20;;
77322;SDS011;66384;51.052;9.850;2023-04-06T15:17:11;12.90;;;7.20;;
77322;SDS011;66384;51.052;9.850;2023-04-06T15:19:40;11.50;;;6.60;;
77322;SDS011;66384;51.052;9.850;2023-04-06T15:22:10;9.70;;;5.00;;
77322;SDS011;66384;51.052;9.850;2023-04-06T15:24:39;6.10;;;3.90;;